Time;durP1;ratioP1;P1;durP2;ratioP2;P2;SDS_P1;SDS_P2;PMS_P1;PMS_P2;Temp;Humidity;BMP_temperature;BMP_pressure;BME280_temperature;BME280_humidity;BME280_pressure;Samples;Min_cycle;Max_cycle;Signal;HPM_P1;HPM_P2
2021/06/17 00:02:16;;;;;;;2.58;2.08;;;;;;;23.64;48.29;100052.34;5056272;28;20532;-83
2021/06/17 00:04:42;;;;;;;2.90;2.25;;;;;;;23.49;49.63;100047.56;5055760;28;20075;-82
2021/06/17 00:07:07;;;;;;;3.55;2.25;;;;;;;23.43;51.28;100045.03;5054580;28;20032;-83
2021/06/17 00:09:33;;;;;;;2.80;2.22;;;;;;;23.37;50.93;100051.44;5055039;28;20439;-83
2021/06/17 00:12:01;;;;;;;5.07;2.55;;;;;;;23.19;51.53;100055.22;5076428;28;20024;-83
2021/06/17 00:14:32;;;;;;;5.68;2.30;;;;;;;23.22;48.48;100055.56;5056313;28;20096;-83
2021/06/17 00:16:59;;;;;;;3.35;2.20;;;;;;;23.19;51.32;100055.22;5062457;28;20049;-84
2021/06/17 00:19:24;;;;;;;4.75;2.25;;;;;;;23.17;49.53;100052.78;5065484;28;20040;-83
2021/06/17 00:21:50;;;;;;;3.65;2.40;;;;;;;23.15;50.67;100054.09;5052902;28;20414;-82
2021/06/17 00:24:16;;;;;;;3.40;2.28;;;;;;;23.08;51.17;100043.47;5067827;28;20041;-84
2021/06/17 00:26:42;;;;;;;3.45;2.28;;;;;;;22.98;51.14;100049.53;5059731;28;20041;-83
2021/06/17 00:29:07;;;;;;;3.22;2.38;;;;;;;22.95;50.73;100046.47;5058752;28;20127;-83
2021/06/17 00:31:32;;;;;;;3.17;2.28;;;;;;;22.86;50.52;100043.38;5064389;28;20037;-83
2021/06/17 00:33:58;;;;;;;2.53;1.95;;;;;;;23.03;49.13;100048.78;5060479;28;20067;-83
2021/06/17 00:36:23;;;;;;;2.70;2.20;;;;;;;23.06;49.44;100049.09;5053383;28;20037;-84
2021/06/17 00:38:48;;;;;;;4.47;2.40;;;;;;;23.09;50.56;100048.59;5056913;28;20052;-84
2021/06/17 00:41:14;;;;;;;3.63;2.28;;;;;;;23.10;50.18;100052.13;5061804;28;20057;-84
2021/06/17 00:43:39;;;;;;;4.30;2.50;;;;;;;23.03;50.09;100046.91;5066388;28;20047;-83
2021/06/17 00:46:05;;;;;;;4.25;2.30;;;;;;;23.18;48.97;100056.28;5061305;28;20689;-83
2021/06/17 00:48:31;;;;;;;2.72;2.25;;;;;;;23.16;48.97;100058.41;5062784;28;20394;-83
2021/06/17 00:50:59;;;;;;;3.08;2.33;;;;;;;23.25;48.39;100062.34;5058791;28;20417;-84
2021/06/17 00:53:30;;;;;;;4.82;2.50;;;;;;;23.24;48.34;100058.84;5056250;28;20039;-84
2021/06/17 00:55:57;;;;;;;2.80;2.28;;;;;;;23.20;48.45;100059.56;5052544;28;20049;-84
2021/06/17 00:58:23;;;;;;;2.70;2.00;;;;;;;23.13;48.13;100051.63;5057665;28;20159;-84
2021/06/17 01:00:49;;;;;;;2.55;2.00;;;;;;;23.07;49.22;100048.06;5069010;28;20502;-84
2021/06/17 01:03:14;;;;;;;3.47;2.35;;;;;;;23.10;48.14;100044.06;5061934;28;20040;-84
2021/06/17 01:05:40;;;;;;;2.92;1.70;;;;;;;23.13;47.74;100040.84;5059950;28;20047;-84
2021/06/17 01:08:50;;;;;;;4.47;2.00;;;;;;;23.16;48.83;100040.34;5061699;28;20063;-85
2021/06/17 01:11:24;;;;;;;2.47;2.03;;;;;;;23.04;50.80;100037.75;5060661;28;20037;-84
2021/06/17 01:14:09;;;;;;;2.75;1.75;;;;;;;22.97;49.35;100033.56;5053377;28;20509;-85
2021/06/17 01:16:44;;;;;;;3.55;2.13;;;;;;;22.86;50.04;100029.91;5063194;28;20040;-85
2021/06/17 01:19:30;;;;;;;2.30;1.98;;;;;;;22.76;50.32;100030.50;5053460;28;20079;-85
2021/06/17 01:21:58;;;;;;;2.88;2.08;;;;;;;22.66;49.88;100031.16;5014543;28;20569;-85
2021/06/17 01:24:56;;;;;;;3.13;2.20;;;;;;;22.68;49.42;100030.94;5026701;28;20048;-85
2021/06/17 01:28:05;;;;;;;2.72;2.08;;;;;;;22.64;49.63;100027.06;5045510;28;20125;-85
2021/06/17 01:30:35;;;;;;;3.88;2.17;;;;;;;22.49;51.16;100022.25;5025834;28;21152;-85
2021/06/17 01:33:02;;;;;;;2.53;1.90;;;;;;;22.47;50.43;100021.66;5069766;28;20506;-85
2021/06/17 01:35:33;;;;;;;3.33;2.17;;;;;;;22.39;50.88;100019.38;5063412;28;20043;-85
2021/06/17 01:38:02;;;;;;;2.95;1.80;;;;;;;22.36;50.46;100022.56;5072782;28;20104;-85
2021/06/17 01:40:30;;;;;;;3.08;2.08;;;;;;;22.27;51.92;100012.16;5064070;28;20037;-85
2021/06/17 01:42:58;;;;;;;5.18;2.13;;;;;;;22.33;50.34;100015.75;5064133;28;20045;-85
2021/06/17 01:45:25;;;;;;;2.30;1.80;;;;;;;22.30;50.02;100013.56;5058915;28;20049;-85
2021/06/17 01:47:52;;;;;;;2.38;1.65;;;;;;;22.32;50.58;100013.34;5062364;28;20094;-85
2021/06/17 01:50:20;;;;;;;3.63;2.10;;;;;;;22.19;51.53;100015.22;5058056;28;20033;-85
2021/06/17 01:52:49;;;;;;;4.63;2.20;;;;;;;22.08;52.38;100013.41;5069858;28;20033;-85
2021/06/17 01:55:15;;;;;;;3.75;2.20;;;;;;;22.16;50.92;100014.88;5054068;28;20029;-84
2021/06/17 01:57:42;;;;;;;3.63;2.20;;;;;;;22.16;51.48;100014.88;5058394;28;20132;-84
2021/06/17 02:00:09;;;;;;;1.88;1.50;;;;;;;22.20;50.80;100010.66;5066605;28;20105;-85
2021/06/17 02:02:36;;;;;;;3.88;1.90;;;;;;;22.19;50.85;100015.22;5057411;28;20033;-84
2021/06/17 02:05:03;;;;;;;2.85;2.05;;;;;;;22.09;50.52;100011.53;5065886;28;20032;-85
2021/06/17 02:07:29;;;;;;;3.42;2.08;;;;;;;22.01;51.08;100010.84;5077581;28;20059;-85
2021/06/17 02:09:55;;;;;;;3.03;2.10;;;;;;;22.04;50.74;100013.03;5058915;28;20024;-84
2021/06/17 02:12:21;;;;;;;3.70;2.00;;;;;;;21.95;51.20;100011.81;5059099;28;20064;-85
2021/06/17 02:14:48;;;;;;;4.13;1.90;;;;;;;21.94;50.72;100010.16;5076734;28;20058;-84
2021/06/17 02:17:18;;;;;;;3.60;1.92;;;;;;;21.89;52.35;100010.06;5060044;28;20028;-85
2021/06/17 02:19:47;;;;;;;2.80;2.20;;;;;;;21.83;52.60;100009.16;5074196;28;20040;-84
2021/06/17 02:22:13;;;;;;;2.72;2.03;;;;;;;21.78;53.25;100019.00;5052900;28;20528;-84
2021/06/17 02:24:40;;;;;;;2.50;1.90;;;;;;;21.75;50.49;100012.22;5058973;28;20033;-85
2021/06/17 02:27:12;;;;;;;2.65;2.15;;;;;;;21.89;51.39;100012.75;5047181;28;20044;-85
2021/06/17 02:29:49;;;;;;;3.67;2.10;;;;;;;21.98;50.62;100030.19;5077194;28;20043;-85
2021/06/17 02:32:20;;;;;;;2.58;2.10;;;;;;;22.00;50.74;100024.53;5062533;28;20044;-84
2021/06/17 02:34:49;;;;;;;3.85;2.38;;;;;;;22.02;50.60;100028.66;5058543;28;20039;-85
2021/06/17 02:37:16;;;;;;;3.45;2.38;;;;;;;21.94;51.26;100028.19;5076877;28;20040;-85
2021/06/17 02:39:44;;;;;;;4.03;2.20;;;;;;;21.91;51.00;100029.50;5055616;28;20044;-85
2021/06/17 02:42:14;;;;;;;3.35;2.17;;;;;;;21.99;49.54;100028.28;5044430;28;20101;-85
2021/06/17 02:44:42;;;;;;;2.87;2.27;;;;;;;22.14;49.53;100033.97;5075809;28;20229;-84
2021/06/17 02:47:08;;;;;;;3.30;2.08;;;;;;;22.24;49.14;100044.97;5062237;28;20044;-85
2021/06/17 02:49:33;;;;;;;2.63;2.13;;;;;;;22.33;49.15;100052.66;5078774;28;20204;-84
2021/06/17 02:51:59;;;;;;;2.20;1.80;;;;;;;22.29;49.50;100056.91;5058546;28;20086;-85
2021/06/17 02:54:24;;;;;;;3.42;2.25;;;;;;;22.23;49.17;100054.09;5053968;28;20074;-85
2021/06/17 02:56:58;;;;;;;2.05;1.42;;;;;;;22.25;49.10;100062.75;5057144;28;20158;-85
2021/06/17 02:59:34;;;;;;;3.75;2.13;;;;;;;22.26;48.73;100059.03;5055062;28;20029;-85
2021/06/17 03:02:14;;;;;;;2.35;1.80;;;;;;;22.25;49.37;100065.47;5075422;28;20032;-85
2021/06/17 03:04:49;;;;;;;2.38;1.80;;;;;;;22.14;50.22;100065.47;5059088;28;20067;-85
2021/06/17 03:07:23;;;;;;;3.13;1.92;;;;;;;22.00;51.05;100062.22;5075569;28;20040;-84
2021/06/17 03:09:55;;;;;;;2.90;2.00;;;;;;;21.96;50.90;100058.41;5067986;28;20036;-84
2021/06/17 03:12:25;;;;;;;2.80;1.60;;;;;;;21.97;50.64;100060.00;5059997;28;20515;-85
2021/06/17 03:14:52;;;;;;;2.10;1.58;;;;;;;21.95;51.70;100060.28;5070883;28;20044;-85
2021/06/17 03:17:20;;;;;;;5.25;1.98;;;;;;;21.82;52.78;100055.16;5078968;28;20062;-85
2021/06/17 03:19:49;;;;;;;2.88;2.03;;;;;;;21.64;54.10;100056.09;5060273;28;20033;-85
2021/06/17 03:22:16;;;;;;;3.10;2.00;;;;;;;21.49;55.54;100058.47;5061601;28;20028;-85
2021/06/17 03:24:45;;;;;;;2.83;2.05;;;;;;;21.48;52.88;100065.72;5082546;28;20058;-85
2021/06/17 03:27:11;;;;;;;3.13;1.75;;;;;;;21.51;52.72;100062.56;5081573;28;20039;-85
2021/06/17 03:29:41;;;;;;;3.28;1.70;;;;;;;21.54;53.29;100067.47;5065076;28;20039;-85
2021/06/17 03:32:10;;;;;;;2.97;2.50;;;;;;;21.42;53.30;100066.66;5042097;28;20031;-85
2021/06/17 03:34:38;;;;;;;4.82;2.78;;;;;;;21.50;52.81;100071.69;5075486;28;20029;-85
2021/06/17 03:37:05;;;;;;;3.30;2.47;;;;;;;21.51;53.30;100072.50;5057269;28;20094;-85
2021/06/17 03:39:31;;;;;;;4.07;2.67;;;;;;;21.47;55.31;100072.16;5055848;28;20041;-85
2021/06/17 03:42:00;;;;;;;3.42;2.38;;;;;;;21.45;54.75;100076.13;5050899;28;20054;-85
2021/06/17 03:44:27;;;;;;;4.00;2.60;;;;;;;21.50;53.16;100077.06;5056293;28;20075;-84
2021/06/17 03:46:55;;;;;;;4.15;2.67;;;;;;;21.43;55.75;100081.75;5064580;28;20170;-84
2021/06/17 03:49:22;;;;;;;4.47;2.80;;;;;;;21.28;58.18;100084.84;5056346;28;20047;-86
2021/06/17 03:51:48;;;;;;;3.92;2.80;;;;;;;21.18;57.60;100081.94;5072732;28;20256;-84
2021/06/17 03:54:23;;;;;;;3.92;2.38;;;;;;;21.20;55.58;100082.53;5055731;28;20020;-85
2021/06/17 03:56:52;;;;;;;2.95;2.00;;;;;;;21.24;55.68;100091.78;5057014;28;20039;-85
2021/06/17 03:59:20;;;;;;;3.35;2.17;;;;;;;21.38;54.83;100078.91;5074693;28;20036;-85
2021/06/17 04:01:45;;;;;;;4.22;2.67;;;;;;;21.47;54.43;100080.22;5056753;28;20025;-85
2021/06/17 04:04:11;;;;;;;3.15;2.10;;;;;;;21.51;54.64;100073.31;5056480;28;20551;-85
2021/06/17 04:06:38;;;;;;;4.18;2.55;;;;;;;21.58;54.89;100071.31;5074443;28;20039;-85
2021/06/17 04:09:04;;;;;;;3.53;2.83;;;;;;;21.63;54.26;100076.00;5056489;28;20086;-85
2021/06/17 04:11:31;;;;;;;3.45;2.45;;;;;;;21.68;53.88;100076.09;5063452;28;20149;-85
2021/06/17 04:13:57;;;;;;;2.60;2.10;;;;;;;21.72;54.53;100071.09;5055739;28;20028;-85
2021/06/17 04:16:26;;;;;;;4.10;2.42;;;;;;;21.69;55.15;100083.16;5043160;28;20082;-85
2021/06/17 04:18:54;;;;;;;2.85;2.10;;;;;;;21.67;55.01;100076.38;5041044;28;20052;-85
2021/06/17 04:21:20;;;;;;;3.50;2.60;;;;;;;21.57;56.47;100083.16;5057339;28;20505;-85
2021/06/17 04:23:50;;;;;;;4.20;2.75;;;;;;;21.43;59.84;100092.50;5058863;28;20060;-84
2021/06/17 04:26:20;;;;;;;3.55;2.50;;;;;;;21.32;58.83;100096.78;5078676;28;20056;-85
2021/06/17 04:28:46;;;;;;;3.50;2.50;;;;;;;21.34;58.11;100093.88;5059812;28;20198;-85
2021/06/17 04:31:14;;;;;;;3.63;2.53;;;;;;;21.41;59.65;100106.19;5060489;28;20496;-85
2021/06/17 04:33:43;;;;;;;3.33;2.58;;;;;;;21.47;57.58;100103.59;5049222;28;20033;-85
2021/06/17 04:36:10;;;;;;;2.58;2.08;;;;;;;21.57;56.42;100101.16;5040267;28;20040;-85
2021/06/17 04:38:35;;;;;;;3.47;2.50;;;;;;;21.59;57.58;100094.47;5065650;28;20029;-85
2021/06/17 04:41:01;;;;;;;3.92;2.60;;;;;;;21.68;58.07;100103.03;5042244;28;20037;-85
2021/06/17 04:43:32;;;;;;;3.90;2.50;;;;;;;21.70;57.90;100095.53;5055521;28;20036;-85
2021/06/17 04:45:58;;;;;;;3.08;2.38;;;;;;;21.72;57.35;100103.38;5059079;28;20518;-85
2021/06/17 04:48:24;;;;;;;4.43;2.47;;;;;;;21.73;56.66;100100.44;5064692;28;20037;-85
2021/06/17 04:50:51;;;;;;;3.28;2.53;;;;;;;21.74;58.53;100099.41;5067106;28;20044;-85
2021/06/17 04:53:18;;;;;;;3.00;2.25;;;;;;;21.82;56.48;100092.81;5060901;28;20021;-85
2021/06/17 04:55:46;;;;;;;2.75;1.90;;;;;;;21.94;56.13;100092.81;5049789;28;20158;-85
2021/06/17 04:58:13;;;;;;;2.75;1.92;;;;;;;22.02;57.95;100103.19;5061513;28;20029;-85
2021/06/17 05:00:39;;;;;;;3.30;2.30;;;;;;;22.04;56.60;100093.81;5062180;28;20036;-84
2021/06/17 05:03:04;;;;;;;3.35;2.05;;;;;;;22.10;56.41;100097.47;5082232;28;20029;-85
2021/06/17 05:05:30;;;;;;;2.90;2.03;;;;;;;22.22;55.76;100100.16;5063382;28;20024;-85
2021/06/17 05:10:57;;;;;;;3.33;2.65;;;;;;;22.21;57.72;100093.91;5040674;28;20138;-85
2021/06/17 05:13:28;;;;;;;3.58;2.03;;;;;;;22.32;56.16;100094.94;5065322;28;20233;-85
2021/06/17 05:15:55;;;;;;;3.20;1.70;;;;;;;22.53;55.53;100095.34;5085387;28;20105;-85
2021/06/17 05:18:24;;;;;;;2.30;1.60;;;;;;;22.69;55.28;100097.25;5055249;28;20032;-85
2021/06/17 05:20:50;;;;;;;2.53;1.70;;;;;;;22.83;55.13;100090.47;5090924;28;20119;-85
2021/06/17 05:23:20;;;;;;;2.10;1.50;;;;;;;22.95;54.88;100090.41;5089909;28;20096;-85
2021/06/17 05:25:47;;;;;;;2.35;1.48;;;;;;;23.09;54.35;100083.66;5067116;28;20270;-85
2021/06/17 05:28:17;;;;;;;4.15;1.80;;;;;;;23.36;53.60;100088.41;5065304;28;20059;-85
2021/06/17 05:30:43;;;;;;;2.33;1.60;;;;;;;23.53;53.80;100091.91;5051252;28;20040;-85
2021/06/17 05:33:09;;;;;;;2.30;1.60;;;;;;;23.62;52.98;100086.91;5064412;28;20031;-85
2021/06/17 05:35:35;;;;;;;3.88;2.20;;;;;;;23.80;50.89;100091.22;5064713;28;20032;-85
2021/06/17 05:38:01;;;;;;;4.40;2.17;;;;;;;24.14;50.27;100085.69;5082021;28;20105;-85
2021/06/17 05:40:26;;;;;;;3.17;2.30;;;;;;;24.49;49.25;100081.78;5048140;28;20078;-85
2021/06/17 05:42:51;;;;;;;3.28;1.75;;;;;;;24.51;50.11;100088.56;5060494;28;20037;-85
2021/06/17 05:45:17;;;;;;;3.33;1.90;;;;;;;24.49;50.35;100087.19;5062041;28;20036;-85
2021/06/17 05:47:42;;;;;;;3.30;2.03;;;;;;;24.41;51.81;100095.69;5077050;28;20047;-85
2021/06/17 05:50:08;;;;;;;2.70;1.85;;;;;;;24.46;51.24;100083.09;5042161;28;20060;-85
2021/06/17 05:52:34;;;;;;;4.28;2.10;;;;;;;24.64;48.34;100095.44;5040547;28;20029;-85
2021/06/17 05:54:59;;;;;;;3.20;2.00;;;;;;;25.01;50.25;100092.81;5049372;28;20040;-85
2021/06/17 05:57:25;;;;;;;2.92;1.65;;;;;;;25.51;48.09;100096.19;5062028;28;20028;-85
2021/06/17 05:59:50;;;;;;;3.72;2.10;;;;;;;25.92;59.95;100101.03;5069683;28;20134;-85
2021/06/17 06:02:16;;;;;;;5.13;2.20;;;;;;;26.38;48.58;100103.91;5079235;28;20028;-85
2021/06/17 06:04:41;;;;;;;7.50;2.40;;;;;;;26.83;50.50;100107.81;5085018;28;20040;-85
2021/06/17 06:07:06;;;;;;;2.78;1.75;;;;;;;27.27;49.82;100112.75;5061379;28;20054;-86
2021/06/17 06:09:32;;;;;;;2.90;1.92;;;;;;;27.65;46.55;100119.47;5058621;28;20489;-85
2021/06/17 06:11:57;;;;;;;3.25;2.00;;;;;;;28.06;46.46;100118.56;5059923;28;20123;-86
2021/06/17 06:14:23;;;;;;;4.28;2.47;;;;;;;28.51;45.65;100114.81;5066433;28;20118;-86
2021/06/17 06:16:50;;;;;;;5.82;2.75;;;;;;;28.74;45.35;100118.72;5040259;28;20040;-85
2021/06/17 06:19:15;;;;;;;4.18;2.70;;;;;;;28.99;44.93;100122.38;5074642;28;20040;-85
2021/06/17 06:21:41;;;;;;;4.68;2.40;;;;;;;29.27;41.11;100133.59;5079128;28;20029;-86
2021/06/17 06:24:06;;;;;;;4.45;2.17;;;;;;;29.68;43.65;100133.25;5076744;28;20097;-86
2021/06/17 06:26:33;;;;;;;3.80;2.20;;;;;;;30.01;39.31;100131.47;5059276;28;20457;-86
2021/06/17 06:28:59;;;;;;;3.97;2.30;;;;;;;30.38;39.67;100140.88;5058165;28;20055;-85
2021/06/17 06:31:24;;;;;;;8.05;2.17;;;;;;;30.77;39.34;100150.69;5058413;28;20033;-85
2021/06/17 06:33:49;;;;;;;4.20;1.95;;;;;;;31.07;37.06;100152.97;5075030;28;20533;-85
2021/06/17 06:36:14;;;;;;;4.07;2.20;;;;;;;31.31;37.68;100154.78;5057521;28;20097;-86
2021/06/17 06:38:40;;;;;;;3.45;2.10;;;;;;;31.67;36.70;100173.28;5049820;28;20036;-85
2021/06/17 06:41:05;;;;;;;4.25;2.10;;;;;;;31.90;35.21;100160.56;5043892;28;20418;-86
2021/06/17 06:43:30;;;;;;;5.78;2.10;;;;;;;32.36;35.01;100176.88;5046188;28;20440;-86
2021/06/17 06:45:56;;;;;;;3.17;2.00;;;;;;;32.75;36.05;100175.50;5075442;28;20045;-86
2021/06/17 06:48:21;;;;;;;4.22;2.20;;;;;;;33.09;35.07;100165.16;5064253;28;20047;-85
2021/06/17 06:50:48;;;;;;;5.40;2.10;;;;;;;33.57;33.76;100165.31;5048807;28;20082;-84
2021/06/17 06:53:13;;;;;;;4.90;2.38;;;;;;;33.77;30.73;100163.94;5075998;28;20039;-85
2021/06/17 06:55:39;;;;;;;7.85;2.50;;;;;;;33.80;30.87;100171.56;5061117;28;20380;-85
2021/06/17 06:58:04;;;;;;;3.67;2.30;;;;;;;33.79;32.52;100171.88;5079472;28;20040;-86
2021/06/17 07:00:29;;;;;;;3.95;2.50;;;;;;;34.05;32.78;100178.25;5070323;28;20060;-86
2021/06/17 07:02:55;;;;;;;6.57;2.55;;;;;;;34.29;32.54;100185.28;5056906;28;20624;-85
2021/06/17 07:05:20;;;;;;;6.32;2.63;;;;;;;34.50;31.30;100180.00;5074072;28;20513;-83
2021/06/17 07:07:45;;;;;;;5.43;2.38;;;;;;;34.28;31.46;100183.69;5055999;28;20409;-85
2021/06/17 07:10:12;;;;;;;7.25;2.08;;;;;;;34.23;31.70;100181.91;5051773;28;20104;-85
2021/06/17 07:12:38;;;;;;;5.60;2.50;;;;;;;34.63;30.64;100175.50;5058618;28;20194;-85
2021/06/17 07:15:04;;;;;;;4.38;2.22;;;;;;;34.93;30.70;100170.19;5052946;28;20059;-85
2021/06/17 07:17:29;;;;;;;3.95;2.33;;;;;;;34.93;30.40;100171.00;5073878;28;20039;-85
2021/06/17 07:19:56;;;;;;;4.70;2.35;;;;;;;34.85;30.38;100167.13;5074679;28;20050;-85
2021/06/17 07:22:25;;;;;;;4.05;2.33;;;;;;;35.29;30.20;100172.59;5073554;28;20029;-85
2021/06/17 07:24:53;;;;;;;4.22;2.30;;;;;;;35.31;30.34;100164.84;5073647;28;20430;-85
2021/06/17 07:27:19;;;;;;;2.90;1.77;;;;;;;35.79;26.96;100168.44;5055869;28;20031;-85
2021/06/17 07:29:44;;;;;;;3.03;1.60;;;;;;;36.13;29.94;100168.25;5042711;28;20069;-85
2021/06/17 07:32:10;;;;;;;4.47;1.90;;;;;;;36.53;27.99;100162.34;5051573;28;20036;-85
2021/06/17 07:34:36;;;;;;;3.42;2.00;;;;;;;36.54;26.58;100158.47;5062872;28;20056;-85
2021/06/17 07:37:01;;;;;;;2.50;1.58;;;;;;;36.89;27.65;100158.19;5056227;28;20044;-85
2021/06/17 07:39:27;;;;;;;2.90;2.00;;;;;;;36.88;26.18;100151.06;5064476;28;20040;-85
2021/06/17 07:41:53;;;;;;;4.57;1.90;;;;;;;37.08;25.65;100152.19;5049309;28;20086;-85
2021/06/17 07:44:18;;;;;;;3.33;1.80;;;;;;;37.34;24.71;100154.66;5049776;28;20083;-85
2021/06/17 07:46:44;;;;;;;2.65;1.60;;;;;;;36.99;23.13;100171.56;5055888;28;20033;-85
2021/06/17 07:49:10;;;;;;;3.20;1.75;;;;;;;37.33;24.70;100182.59;5062260;28;20033;-84
2021/06/17 07:51:37;;;;;;;3.53;1.50;;;;;;;37.14;24.17;100172.09;5055809;28;20085;-85
2021/06/17 07:54:02;;;;;;;2.83;1.70;;;;;;;37.10;23.92;100171.16;5051641;28;20033;-85
2021/06/17 07:56:29;;;;;;;3.30;1.60;;;;;;;37.04;22.63;100173.28;5056584;28;20436;-84
2021/06/17 07:58:55;;;;;;;2.72;1.55;;;;;;;37.44;22.17;100160.91;5054767;28;20058;-84
2021/06/17 08:01:21;;;;;;;3.38;1.40;;;;;;;37.18;21.95;100171.06;5074076;28;20037;-84
2021/06/17 08:03:47;;;;;;;1.63;1.25;;;;;;;37.32;23.39;100172.72;5055573;28;20041;-84
2021/06/17 08:06:12;;;;;;;2.50;1.45;;;;;;;37.86;22.64;100177.31;5051725;28;20041;-84
2021/06/17 08:08:38;;;;;;;2.55;1.48;;;;;;;37.87;22.11;100174.19;5045393;28;20077;-84
2021/06/17 08:11:03;;;;;;;3.47;1.70;;;;;;;38.11;21.67;100178.91;5074233;28;20032;-85
2021/06/17 08:13:28;;;;;;;2.38;1.60;;;;;;;38.02;21.35;100181.03;5047577;28;20271;-84
2021/06/17 08:15:54;;;;;;;3.28;1.80;;;;;;;37.93;22.26;100183.84;5070112;28;20033;-84
2021/06/17 08:18:20;;;;;;;3.28;1.70;;;;;;;38.07;21.30;100191.84;5049898;28;20041;-84
2021/06/17 08:20:45;;;;;;;3.20;1.45;;;;;;;37.70;21.79;100197.28;5072248;28;20024;-84
2021/06/17 08:23:11;;;;;;;3.65;1.90;;;;;;;38.02;21.15;100197.59;5069379;28;20040;-84
2021/06/17 08:25:37;;;;;;;2.45;1.67;;;;;;;37.66;22.16;100192.78;5056822;28;20170;-84
2021/06/17 08:28:05;;;;;;;2.63;1.70;;;;;;;37.64;21.96;100190.41;5050886;28;20041;-84
2021/06/17 08:30:33;;;;;;;3.67;2.00;;;;;;;37.59;21.39;100201.63;5055071;28;20052;-84
2021/06/17 08:32:59;;;;;;;2.70;1.40;;;;;;;37.69;22.09;100209.50;5074592;28;20037;-84
2021/06/17 08:35:24;;;;;;;2.83;1.70;;;;;;;38.03;21.54;100211.03;5040543;28;20044;-84
2021/06/17 08:37:50;;;;;;;2.85;1.50;;;;;;;37.94;21.65;100203.97;5041517;28;20136;-85
2021/06/17 08:40:16;;;;;;;3.67;1.60;;;;;;;38.41;21.79;100204.31;5048502;28;20030;-84
2021/06/17 08:42:43;;;;;;;4.97;1.60;;;;;;;38.57;21.39;100203.63;5054008;28;20132;-84
2021/06/17 08:45:10;;;;;;;3.60;1.70;;;;;;;38.18;21.02;100205.97;5057780;28;20033;-84
2021/06/17 08:47:39;;;;;;;4.55;1.85;;;;;;;37.86;21.15;100204.91;5058280;28;20443;-84
2021/06/17 08:50:06;;;;;;;3.45;1.60;;;;;;;38.07;21.39;100202.88;5055753;28;20063;-85
2021/06/17 08:52:34;;;;;;;2.28;1.50;;;;;;;37.69;20.94;100198.44;5064822;28;20497;-85
2021/06/17 08:55:11;;;;;;;2.60;1.42;;;;;;;37.59;24.95;100196.94;5055954;28;20669;-84
2021/06/17 08:57:37;;;;;;;3.45;1.70;;;;;;;37.83;21.75;100192.59;5070702;28;20039;-84
2021/06/17 09:00:23;;;;;;;2.70;1.60;;;;;;;38.19;20.71;100188.25;5061929;28;20461;-85
2021/06/17 09:03:05;;;;;;;3.00;1.70;;;;;;;37.94;21.56;100188.22;5071254;28;20279;-84
2021/06/17 09:05:32;;;;;;;2.20;1.60;;;;;;;38.11;22.03;100192.72;5075754;28;20047;-84
2021/06/17 09:07:58;;;;;;;2.20;1.70;;;;;;;38.49;21.21;100193.53;5077226;28;20504;-84
2021/06/17 09:10:24;;;;;;;5.63;1.80;;;;;;;38.22;21.86;100196.63;5072340;28;20047;-84
2021/06/17 09:12:53;;;;;;;3.30;2.20;;;;;;;37.78;22.44;100196.41;5077583;28;20096;-84
2021/06/17 09:15:42;;;;;;;3.00;2.10;;;;;;;37.03;23.88;100202.00;5072120;28;20121;-84
2021/06/17 09:18:24;;;;;;;4.45;2.38;;;;;;;37.13;23.37;100200.78;5059217;28;20124;-84
2021/06/17 09:20:54;;;;;;;2.40;2.00;;;;;;;37.00;24.13;100191.66;5059041;28;20044;-84
2021/06/17 09:23:29;;;;;;;4.22;2.17;;;;;;;36.56;24.19;100197.47;5076486;28;20085;-84
2021/06/17 09:25:59;;;;;;;5.75;2.30;;;;;;;36.25;25.46;100199.78;5079100;28;20036;-84
2021/06/17 09:28:42;;;;;;;3.38;2.45;;;;;;;35.84;27.42;100198.50;5078914;28;20037;-84
2021/06/17 09:31:20;;;;;;;5.72;2.40;;;;;;;36.02;25.53;100193.72;5082802;28;20040;-83
2021/06/17 09:33:47;;;;;;;2.78;2.10;;;;;;;36.15;26.65;100200.97;5079007;28;20024;-83
2021/06/17 09:36:12;;;;;;;4.47;2.58;;;;;;;36.48;25.26;100194.78;5058730;28;20043;-83
2021/06/17 09:38:53;;;;;;;2.80;2.30;;;;;;;36.16;26.22;100197.09;5077086;28;20111;-83
2021/06/17 09:41:29;;;;;;;4.10;3.03;;;;;;;36.01;27.06;100194.88;5075682;28;20047;-84
2021/06/17 09:43:54;;;;;;;3.65;2.88;;;;;;;36.43;25.94;100192.22;5042038;28;20029;-84
2021/06/17 09:46:20;;;;;;;3.88;2.50;;;;;;;36.54;26.35;100194.25;5038445;28;20280;-84
2021/06/17 09:48:49;;;;;;;5.22;2.88;;;;;;;36.66;27.83;100199.06;5066319;28;20397;-84
2021/06/17 09:51:25;;;;;;;3.45;2.60;;;;;;;36.60;26.77;100197.66;5051786;28;20119;-83
2021/06/17 09:53:53;;;;;;;5.28;3.00;;;;;;;36.66;26.42;100195.47;5056152;28;20102;-84
2021/06/17 09:56:30;;;;;;;4.05;2.65;;;;;;;36.56;26.53;100202.97;5056904;28;20040;-84
2021/06/17 09:58:56;;;;;;;3.25;2.70;;;;;;;36.63;26.57;100193.41;5079813;28;20043;-84
2021/06/17 10:01:30;;;;;;;4.55;2.70;;;;;;;36.10;27.63;100185.44;5078577;28;20036;-84
2021/06/17 10:04:16;;;;;;;3.72;2.80;;;;;;;36.10;26.64;100185.44;5095872;28;20032;-84
2021/06/17 10:06:43;;;;;;;7.43;3.05;;;;;;;35.98;26.93;100181.78;5083145;28;20169;-84
2021/06/17 10:09:12;;;;;;;3.17;2.65;;;;;;;35.72;27.63;100177.97;5100395;28;20032;-84
2021/06/17 10:11:39;;;;;;;3.35;2.58;;;;;;;35.58;29.09;100171.06;5086009;28;20503;-83
2021/06/17 10:14:06;;;;;;;4.07;3.17;;;;;;;35.41;28.17;100177.41;5080024;28;20029;-84
2021/06/17 10:16:32;;;;;;;5.20;3.20;;;;;;;35.52;28.24;100175.94;5098898;28;20028;-84
2021/06/17 10:18:58;;;;;;;3.50;3.05;;;;;;;35.86;27.64;100171.47;5076420;28;20043;-85
2021/06/17 10:21:23;;;;;;;3.78;3.20;;;;;;;36.00;27.48;100174.81;5077908;28;20032;-83
2021/06/17 10:23:51;;;;;;;4.20;3.30;;;;;;;36.17;27.12;100189.63;5057971;28;20032;-83
2021/06/17 10:26:21;;;;;;;6.38;3.25;;;;;;;36.14;27.24;100183.66;5072209;28;20036;-84
2021/06/17 10:28:51;;;;;;;4.00;3.20;;;;;;;36.00;27.61;100183.06;5087272;28;20029;-83
2021/06/17 10:31:35;;;;;;;5.15;3.30;;;;;;;35.86;29.34;100168.72;5077916;28;20028;-84
2021/06/17 10:34:23;;;;;;;4.55;3.40;;;;;;;35.96;28.36;100176.59;5071766;28;20528;-84
2021/06/17 10:37:08;;;;;;;3.85;3.35;;;;;;;35.86;28.33;100168.72;5075913;28;20574;-84
2021/06/17 10:40:06;;;;;;;4.32;3.88;;;;;;;35.96;28.51;100168.34;5075549;28;20031;-84
2021/06/17 10:42:41;;;;;;;6.45;3.70;;;;;;;35.63;28.66;100162.66;5021833;28;20239;-85
2021/06/17 10:45:35;;;;;;;3.47;3.17;;;;;;;35.88;28.14;100163.69;5055205;28;20037;-84
2021/06/17 10:48:08;;;;;;;4.80;3.85;;;;;;;35.82;27.96;100159.50;5056856;28;20128;-84
2021/06/17 10:50:45;;;;;;;5.03;3.85;;;;;;;35.30;28.96;100158.53;5057339;28;20029;-84
2021/06/17 10:53:13;;;;;;;4.10;3.70;;;;;;;35.59;28.85;100153.41;5055692;28;20079;-84
2021/06/17 10:55:56;;;;;;;4.07;3.67;;;;;;;35.67;28.16;100147.13;5055795;28;20045;-84
2021/06/17 10:58:40;;;;;;;5.38;3.97;;;;;;;35.64;28.20;100156.84;5075688;28;20097;-84
2021/06/17 11:01:20;;;;;;;5.25;3.78;;;;;;;35.81;30.33;100155.94;5048251;28;20029;-84
2021/06/17 11:04:08;;;;;;;6.45;4.05;;;;;;;35.90;28.80;100151.22;5050286;28;20402;-84
2021/06/17 11:06:51;;;;;;;7.47;4.65;;;;;;;35.67;28.17;100150.66;5023621;28;20491;-83
2021/06/17 11:09:35;;;;;;;4.90;4.00;;;;;;;35.47;28.76;100143.13;5030087;28;20040;-84
2021/06/17 11:12:02;;;;;;;4.20;3.78;;;;;;;35.48;29.22;100141.97;5039081;28;20044;-84
2021/06/17 11:14:38;;;;;;;4.95;4.10;;;;;;;35.50;28.84;100134.22;5039365;28;20092;-84
2021/06/17 11:17:26;;;;;;;4.22;3.83;;;;;;;35.71;28.57;100135.13;5038789;28;20032;-84
2021/06/17 11:19:55;;;;;;;5.30;4.05;;;;;;;35.93;28.19;100131.28;5039144;28;20063;-84
2021/06/17 11:22:44;;;;;;;4.90;4.40;;;;;;;36.05;28.09;100132.53;5057085;28;20025;-83
2021/06/17 11:25:15;;;;;;;5.18;3.50;;;;;;;35.96;28.76;100135.31;5065802;28;20060;-83
2021/06/17 11:28:18;;;;;;;5.07;3.80;;;;;;;36.17;28.97;100138.13;5026273;28;20099;-84
2021/06/17 11:30:44;;;;;;;5.20;4.20;;;;;;;35.96;28.16;100135.31;5028196;28;20375;-84
2021/06/17 11:33:16;;;;;;;5.72;4.25;;;;;;;35.76;28.44;100125.88;5032628;28;20037;-84
2021/06/17 11:35:46;;;;;;;4.15;3.60;;;;;;;35.65;30.82;100122.69;5063106;28;20055;-83
2021/06/17 11:38:11;;;;;;;4.23;3.83;;;;;;;35.80;29.22;100126.00;5057638;28;20025;-83